Time;durP1;ratioP1;P1;durP2;ratioP2;P2;SDS_P1;SDS_P2;PMS_P1;PMS_P2;Temp;Humidity;BMP_temperature;BMP_pressure;BME280_temperature;BME280_humidity;BME280_pressure;Samples;Min_cycle;Max_cycle;Signal;HPM_P1;HPM_P2
2022/05/10 00:02:18;;;;;;;7.57;2.33;;;;;;;9.24;100.00;99887.78;4311264;33;20058;-83
2022/05/10 00:04:49;;;;;;;5.43;2.35;;;;;;;9.00;100.00;99847.28;4309977;33;20049;-82
2022/05/10 00:10:59;;;;;;;3.65;2.37;;;;;;;9.27;100.00;99879.28;4309028;33;20047;-83
2022/05/10 00:13:26;;;;;;;7.12;2.65;;;;;;;9.07;100.00;99874.88;4309921;33;20070;-82
2022/05/10 00:15:53;;;;;;;6.00;2.35;;;;;;;9.01;100.00;99873.06;4316351;33;20040;-82
2022/05/10 00:18:22;;;;;;;3.35;1.87;;;;;;;8.75;100.00;99844.56;4325407;33;20425;-83
2022/05/10 00:20:49;;;;;;;8.20;2.50;;;;;;;9.02;100.00;99872.03;4327269;33;20427;-90
2022/05/10 00:23:16;;;;;;;8.43;2.72;;;;;;;8.70;100.00;99842.53;4309384;33;20048;-83
2022/05/10 00:25:43;;;;;;;7.10;2.58;;;;;;;8.98;100.00;99876.19;4322847;33;20028;-83
2022/05/10 00:28:10;;;;;;;4.00;2.53;;;;;;;8.44;100.00;99789.03;4310420;33;20048;-82
2022/05/10 00:30:37;;;;;;;7.68;2.67;;;;;;;8.93;100.00;99867.97;4319054;33;20106;-82
2022/05/10 00:33:04;;;;;;;2.78;2.22;;;;;;;9.01;100.00;99875.75;4320941;33;20065;-87
2022/05/10 00:35:34;;;;;;;4.00;1.75;;;;;;;8.81;100.00;99848.25;4312516;33;20052;-81
2022/05/10 00:38:03;;;;;;;11.93;2.58;;;;;;;8.62;100.00;99821.31;4324232;33;20100;-81
2022/05/10 00:40:35;;;;;;;6.95;2.40;;;;;;;8.69;100.00;99818.59;4311369;33;20367;-79
2022/05/10 00:43:29;;;;;;;4.05;1.95;;;;;;;8.61;100.00;99814.28;4311027;33;20045;-83
2022/05/10 00:46:13;;;;;;;7.55;2.50;;;;;;;8.90;100.00;99852.28;4318062;33;20033;-82
2022/05/10 00:48:45;;;;;;;4.57;2.47;;;;;;;8.76;100.00;99846.22;4314667;33;20392;-81
2022/05/10 00:51:28;;;;;;;8.38;2.67;;;;;;;8.78;100.00;99843.31;4325723;33;20058;-82
2022/05/10 00:54:07;;;;;;;5.18;2.15;;;;;;;8.73;100.00;99847.47;4335740;33;20062;-79
2022/05/10 00:56:49;;;;;;;7.75;2.92;;;;;;;8.47;100.00;99799.31;4323825;33;20095;-81
2022/05/10 00:59:20;;;;;;;5.43;2.25;;;;;;;8.58;100.00;99822.78;4320009;33;20052;-81
2022/05/10 01:01:52;;;;;;;9.88;2.53;;;;;;;8.62;100.00;99834.75;4331169;33;20486;-80
2022/05/10 01:04:42;;;;;;;2.35;1.77;;;;;;;8.60;100.00;99834.16;4324611;33;20044;-79
2022/05/10 01:07:18;;;;;;;10.63;2.60;;;;;;;8.57;100.00;99837.25;4327295;33;20037;-80
2022/05/10 01:09:54;;;;;;;5.40;3.00;;;;;;;8.45;100.00;99828.25;4312228;33;20066;-83
2022/05/10 01:12:25;;;;;;;4.32;2.50;;;;;;;8.44;100.00;99821.22;4327818;33;20048;-82
2022/05/10 01:15:10;;;;;;;3.12;2.25;;;;;;;8.46;100.00;99819.97;4313022;33;20062;-82
2022/05/10 01:17:37;;;;;;;3.25;2.20;;;;;;;8.41;100.00;99822.47;4306503;33;20076;-81
2022/05/10 01:20:06;;;;;;;8.20;2.00;;;;;;;8.05;100.00;99780.16;4322352;33;20048;-81
2022/05/10 01:23:11;;;;;;;6.90;2.35;;;;;;;8.16;100.00;99787.53;4329192;33;20381;-81
2022/05/10 01:25:53;;;;;;;4.53;2.17;;;;;;;8.13;100.00;99799.50;4296813;33;20046;-82
2022/05/10 01:28:34;;;;;;;2.33;2.08;;;;;;;8.24;100.00;99816.78;4322709;33;20374;-81
2022/05/10 01:31:09;;;;;;;13.02;2.60;;;;;;;8.21;100.00;99814.53;4325053;33;20071;-81
2022/05/10 01:33:45;;;;;;;5.00;2.30;;;;;;;8.13;100.00;99809.41;4326478;33;20464;-81
2022/05/10 01:36:37;;;;;;;7.53;2.28;;;;;;;8.13;100.00;99814.78;4327084;33;20062;-82
2022/05/10 01:39:45;;;;;;;7.72;2.50;;;;;;;8.12;100.00;99803.22;4321605;33;20041;-81
2022/05/10 01:42:32;;;;;;;9.82;2.55;;;;;;;8.12;100.00;99805.06;4329079;33;20138;-81
2022/05/10 01:45:11;;;;;;;2.08;1.77;;;;;;;7.64;100.00;99728.56;4325062;33;20457;-82
2022/05/10 01:47:47;;;;;;;12.23;3.00;;;;;;;8.05;100.00;99796.25;4327955;33;20064;-81
2022/05/10 01:50:23;;;;;;;11.43;2.50;;;;;;;7.99;100.00;99798.75;4328691;33;20342;-80
2022/05/10 01:53:13;;;;;;;12.43;2.62;;;;;;;8.06;100.00;99793.34;4325893;33;20106;-86
2022/05/10 01:55:41;;;;;;;2.47;1.95;;;;;;;8.08;100.00;99790.47;4314261;33;20041;-79
2022/05/10 01:58:13;;;;;;;8.98;2.10;;;;;;;8.00;100.00;99794.22;4314897;33;20036;-80
2022/05/10 02:00:43;;;;;;;2.80;2.10;;;;;;;8.00;100.00;99783.47;4319847;33;20037;-81
2022/05/10 02:03:20;;;;;;;13.38;2.50;;;;;;;7.95;100.00;99783.31;4328265;33;20070;-80
2022/05/10 02:05:53;;;;;;;4.90;2.20;;;;;;;7.71;100.00;99750.03;4328205;33;20222;-80
2022/05/10 02:08:51;;;;;;;4.57;2.65;;;;;;;7.98;100.00;99789.06;4316557;33;20048;-81
2022/05/10 02:11:18;;;;;;;9.55;2.53;;;;;;;7.69;100.00;99742.19;4326807;33;20102;-80
2022/05/10 02:13:52;;;;;;;6.78;3.05;;;;;;;7.89;100.00;99787.66;4311168;33;20033;-88
2022/05/10 02:16:29;;;;;;;6.10;2.45;;;;;;;7.57;100.00;99742.00;4322797;33;20060;-81
2022/05/10 02:19:13;;;;;;;3.92;1.90;;;;;;;7.53;100.00;99746.16;4338368;33;20054;-80
2022/05/10 02:21:53;;;;;;;2.60;2.00;;;;;;;7.88;100.00;99780.66;4327455;33;20033;-81
2022/05/10 02:24:38;;;;;;;8.05;2.97;;;;;;;7.85;100.00;99781.09;4327115;33;20062;-82
2022/05/10 02:27:27;;;;;;;2.85;2.08;;;;;;;7.54;100.00;99736.25;4324545;33;20438;-82
2022/05/10 02:30:07;;;;;;;12.07;2.12;;;;;;;7.77;100.00;99773.25;4313425;33;20456;-82
2022/05/10 02:35:23;;;;;;;7.93;1.87;;;;;;;7.77;100.00;99767.91;4327809;33;20040;-83
2022/05/10 02:37:50;;;;;;;2.95;1.73;;;;;;;7.73;100.00;99774.75;4312121;33;20029;-86
2022/05/10 02:40:17;;;;;;;8.27;2.70;;;;;;;7.57;100.00;99746.56;4325153;33;20110;-82
2022/05/10 02:42:47;;;;;;;9.85;1.80;;;;;;;7.66;100.00;99766.72;4327474;33;20074;-83
2022/05/10 02:45:18;;;;;;;5.03;2.17;;;;;;;7.37;100.00;99709.09;4324014;33;20048;-83
2022/05/10 02:47:46;;;;;;;4.70;3.42;;;;;;;7.69;100.00;99770.81;4324086;33;20045;-87
2022/05/10 02:50:26;;;;;;;4.47;2.47;;;;;;;7.67;100.00;99762.19;4327406;33;20851;-83
2022/05/10 02:52:53;;;;;;;5.95;2.47;;;;;;;7.42;100.00;99710.13;4312957;33;20408;-84
2022/05/10 02:55:47;;;;;;;6.07;2.20;;;;;;;7.66;100.00;99755.16;4326321;33;20058;-85
2022/05/10 02:58:24;;;;;;;9.52;3.12;;;;;;;7.66;100.00;99757.84;4312849;33;20092;-82
2022/05/10 03:00:53;;;;;;;2.70;2.15;;;;;;;7.59;100.00;99745.28;4324186;33;20107;-82
2022/05/10 03:03:26;;;;;;;7.03;2.30;;;;;;;7.69;100.00;99744.03;4313743;33;20057;-80
2022/05/10 03:05:53;;;;;;;5.37;1.95;;;;;;;7.69;100.00;99744.03;4321398;33;20113;-80
2022/05/10 03:08:21;;;;;;;5.37;2.30;;;;;;;7.70;100.00;99756.41;4326807;33;20058;-81
2022/05/10 03:10:48;;;;;;;9.27;2.92;;;;;;;7.73;100.00;99750.63;4328190;33;20227;-88
2022/05/10 03:13:15;;;;;;;3.67;2.12;;;;;;;7.68;100.00;99745.09;4312650;33;20130;-82
2022/05/10 03:15:42;;;;;;;4.37;2.97;;;;;;;7.70;100.00;99756.41;4324919;33;20498;-80
2022/05/10 03:18:08;;;;;;;6.28;2.00;;;;;;;7.57;100.00;99731.28;4326323;33;20044;-83
2022/05/10 03:20:35;;;;;;;6.97;1.90;;;;;;;7.64;100.00;99753.53;4326911;33;20049;-81
2022/05/10 03:23:01;;;;;;;3.20;2.37;;;;;;;7.37;100.00;99709.09;4312507;33;20048;-84
2022/05/10 03:25:30;;;;;;;6.78;2.35;;;;;;;7.37;100.00;99704.59;4326126;33;20845;-80
2022/05/10 03:28:05;;;;;;;5.22;2.33;;;;;;;7.36;100.00;99707.47;4314497;33;20041;-81
2022/05/10 03:30:32;;;;;;;4.97;2.80;;;;;;;7.50;100.00;99727.84;4315837;33;20078;-81
2022/05/10 03:32:59;;;;;;;4.18;2.53;;;;;;;7.61;100.00;99743.25;4307048;33;20039;-85
2022/05/10 03:35:25;;;;;;;8.20;2.33;;;;;;;7.62;100.00;99749.41;4322895;33;20041;-81
2022/05/10 03:37:52;;;;;;;6.72;1.87;;;;;;;7.60;100.00;99738.91;4324633;33;20040;-82
2022/05/10 03:40:18;;;;;;;6.72;2.20;;;;;;;7.66;100.00;99739.94;4322493;33;20036;-82
2022/05/10 03:42:47;;;;;;;2.85;2.42;;;;;;;7.41;100.00;99697.75;4325888;33;20045;-82
2022/05/10 03:45:15;;;;;;;6.87;3.47;;;;;;;7.75;100.00;99735.13;4323208;33;20070;-79
2022/05/10 03:47:42;;;;;;;8.48;2.58;;;;;;;7.58;100.00;99711.50;4324017;33;20824;-83
2022/05/10 03:50:10;;;;;;;3.85;3.33;;;;;;;7.82;100.00;99743.97;4312073;33;20111;-79
2022/05/10 03:52:38;;;;;;;6.03;2.10;;;;;;;7.86;100.00;99734.44;4325574;33;20366;-76
2022/05/10 03:55:06;;;;;;;3.65;1.77;;;;;;;7.67;100.00;99711.25;4305797;33;20115;-84
2022/05/10 03:57:33;;;;;;;5.45;1.90;;;;;;;7.95;100.00;99743.09;4310147;33;20336;-80
2022/05/10 03:59:59;;;;;;;7.95;2.28;;;;;;;7.96;100.00;99742.87;4317489;33;20086;-80
2022/05/10 04:02:26;;;;;;;3.00;2.62;;;;;;;8.02;100.00;99745.72;4336845;33;20065;-81
2022/05/10 04:04:53;;;;;;;4.40;2.10;;;;;;;7.78;100.00;99689.13;4323312;33;20048;-80
2022/05/10 04:07:19;;;;;;;3.58;1.92;;;;;;;8.10;100.00;99735.53;4313795;33;20037;-80
2022/05/10 04:09:45;;;;;;;4.62;2.22;;;;;;;8.18;100.00;99737.16;4312759;33;20063;-80
2022/05/10 04:12:12;;;;;;;9.10;2.45;;;;;;;8.21;100.00;99731.34;4326553;33;20450;-78
2022/05/10 04:14:39;;;;;;;8.98;1.90;;;;;;;8.27;100.00;99730.50;4325849;33;20074;-80
2022/05/10 04:17:05;;;;;;;14.68;2.25;;;;;;;8.36;100.00;99728.38;4326245;33;20062;-76
2022/05/10 04:19:32;;;;;;;5.78;2.03;;;;;;;8.19;100.00;99695.87;4323381;33;20418;-78
2022/05/10 04:21:58;;;;;;;8.82;2.33;;;;;;;8.21;100.00;99687.63;4337549;33;20075;-80
2022/05/10 04:24:24;;;;;;;2.08;1.75;;;;;;;8.33;100.00;99689.37;4326398;33;20133;-77
2022/05/10 04:26:51;;;;;;;7.32;2.15;;;;;;;8.61;100.00;99725.72;4326611;33;20078;-76
2022/05/10 04:29:23;;;;;;;1.98;1.80;;;;;;;8.63;100.00;99712.91;4324764;33;20081;-89
2022/05/10 04:31:50;;;;;;;7.22;2.60;;;;;;;8.80;100.00;99733.81;4324777;33;20131;-78
2022/05/10 04:34:16;;;;;;;7.85;2.35;;;;;;;8.92;100.00;99737.44;4326054;33;20443;-77
2022/05/10 04:36:44;;;;;;;6.32;2.17;;;;;;;9.02;100.00;99729.69;4327609;33;20363;-77
2022/05/10 04:39:10;;;;;;;4.30;1.87;;;;;;;9.06;100.00;99722.81;4323840;33;20036;-77
2022/05/10 04:41:43;;;;;;;1.98;1.67;;;;;;;9.21;100.00;99741.25;4324853;33;20083;-80
2022/05/10 04:44:10;;;;;;;5.60;2.05;;;;;;;9.29;100.00;99732.09;4329499;33;20066;-77
2022/05/10 04:46:40;;;;;;;5.55;1.80;;;;;;;9.44;99.69;99734.37;4321077;33;20111;-83
2022/05/10 04:49:10;;;;;;;4.18;1.98;;;;;;;9.50;96.38;99727.31;4325857;33;20051;-77
2022/05/10 04:51:37;;;;;;;4.05;2.67;;;;;;;9.68;97.91;99734.50;4327153;33;20390;-84
2022/05/10 04:54:04;;;;;;;4.75;2.97;;;;;;;9.57;97.56;99696.59;4327921;33;20055;-79
2022/05/10 04:56:31;;;;;;;6.15;1.70;;;;;;;9.62;97.02;99695.91;4329140;33;20132;-79
2022/05/10 04:58:57;;;;;;;2.92;1.98;;;;;;;9.92;95.54;99730.06;4325428;33;20346;-78
2022/05/10 05:01:26;;;;;;;4.93;2.42;;;;;;;9.97;97.30;99733.72;4322400;33;20442;-77
2022/05/10 05:03:56;;;;;;;3.37;2.00;;;;;;;9.97;90.85;99725.66;4312591;33;20032;-86
2022/05/10 05:06:26;;;;;;;9.02;2.10;;;;;;;9.98;91.32;99718.37;4315896;33;20836;-76
2022/05/10 05:08:53;;;;;;;6.05;2.50;;;;;;;9.98;91.49;99729.16;4327585;33;20369;-77
2022/05/10 05:11:20;;;;;;;6.43;2.60;;;;;;;10.09;91.09;99730.25;4327070;33;20063;-76
2022/05/10 05:13:47;;;;;;;10.52;2.28;;;;;;;10.13;91.81;99743.00;4326391;33;20088;-78
2022/05/10 05:16:13;;;;;;;10.13;2.87;;;;;;;10.17;91.46;99738.78;4324062;33;20081;-77
2022/05/10 05:18:39;;;;;;;10.55;2.60;;;;;;;10.17;91.58;99728.03;4311874;33;20043;-78
2022/05/10 05:21:06;;;;;;;7.62;2.33;;;;;;;10.24;92.25;99744.06;4325512;33;20048;-77
2022/05/10 05:23:33;;;;;;;17.25;2.42;;;;;;;10.26;91.73;99742.00;4326775;33;20036;-79
2022/05/10 05:26:00;;;;;;;5.70;2.60;;;;;;;10.23;91.66;99738.91;4307834;33;20045;-76
2022/05/10 05:28:26;;;;;;;5.12;2.45;;;;;;;10.30;93.22;99745.03;4315460;33;20033;-76
2022/05/10 05:30:53;;;;;;;9.35;2.60;;;;;;;10.42;93.74;99745.94;4329293;33;20193;-77
2022/05/10 05:33:20;;;;;;;7.60;3.28;;;;;;;10.47;95.70;99753.31;4323910;33;20082;-77
2022/05/10 05:35:46;;;;;;;6.20;2.35;;;;;;;10.47;94.49;99747.94;4334478;33;20052;-79
2022/05/10 05:38:13;;;;;;;5.47;2.00;;;;;;;10.16;95.98;99707.56;4326567;33;20037;-77
2022/05/10 05:40:39;;;;;;;9.23;3.08;;;;;;;10.01;96.71;99674.88;4328548;33;20037;-77
2022/05/10 05:43:06;;;;;;;13.18;2.28;;;;;;;10.27;93.85;99721.28;4325214;33;20432;-76
2022/05/10 05:45:33;;;;;;;9.50;3.45;;;;;;;10.40;93.25;99710.31;4322163;33;20052;-87
2022/05/10 05:48:01;;;;;;;11.43;2.50;;;;;;;10.81;94.80;99751.69;4325390;33;20056;-77
2022/05/10 05:50:28;;;;;;;9.55;2.22;;;;;;;10.94;95.14;99753.34;4316106;33;20390;-77
2022/05/10 05:52:55;;;;;;;19.02;3.28;;;;;;;11.02;93.64;99752.19;4326199;33;20074;-78
2022/05/10 05:55:21;;;;;;;8.77;2.90;;;;;;;11.09;93.59;99744.81;4325306;33;20062;-77
2022/05/10 05:57:48;;;;;;;6.50;2.92;;;;;;;10.97;93.63;99708.94;4327235;33;20362;-77
2022/05/10 06:00:19;;;;;;;11.77;3.15;;;;;;;11.29;88.46;99749.81;4308399;33;20085;-76
2022/05/10 06:02:48;;;;;;;8.30;2.05;;;;;;;11.37;86.73;99751.31;4328574;33;20066;-77
2022/05/10 06:05:14;;;;;;;8.10;2.33;;;;;;;11.43;87.42;99750.37;4329409;33;20041;-77
2022/05/10 06:07:41;;;;;;;7.45;2.08;;;;;;;11.57;88.71;99751.75;4327262;33;20056;-85
2022/05/10 06:10:09;;;;;;;5.55;3.00;;;;;;;11.36;90.93;99701.13;4328946;33;20082;-76
2022/05/10 06:12:37;;;;;;;12.18;2.22;;;;;;;11.47;92.39;99707.56;4329885;33;20058;-77
2022/05/10 06:15:11;;;;;;;13.02;3.87;;;;;;;11.56;90.75;99708.84;4329691;33;20048;-76
2022/05/10 06:17:40;;;;;;;5.25;2.83;;;;;;;11.84;89.15;99734.19;4330054;33;20008;-78
2022/05/10 06:20:09;;;;;;;6.62;2.37;;;;;;;11.74;85.72;99705.13;4314499;33;20041;-77
2022/05/10 06:22:36;;;;;;;12.43;2.87;;;;;;;11.72;85.59;99688.37;4334207;33;20078;-77
2022/05/10 06:25:05;;;;;;;5.95;2.45;;;;;;;11.95;88.00;99709.88;4335686;33;20251;-77
2022/05/10 06:27:32;;;;;;;3.75;2.33;;;;;;;12.23;86.73;99724.41;4316804;33;20066;-77
2022/05/10 06:29:58;;;;;;;10.88;2.97;;;;;;;12.33;88.69;99732.69;4332774;33;20062;-81
2022/05/10 06:32:26;;;;;;;5.18;2.15;;;;;;;12.13;85.59;99699.94;4337732;33;20076;-77
2022/05/10 06:34:53;;;;;;;6.75;2.00;;;;;;;12.47;86.19;99732.38;4329719;33;20096;-77
2022/05/10 06:40:12;;;;;;;8.85;2.28;;;;;;;12.51;77.58;99722.72;4340512;33;20065;-80
2022/05/10 06:42:40;;;;;;;13.88;2.45;;;;;;;12.56;78.61;99725.50;4324711;33;20096;-81
2022/05/10 06:45:10;;;;;;;2.33;2.12;;;;;;;12.40;80.43;99691.19;4343891;33;20093;-84
2022/05/10 06:47:38;;;;;;;10.40;2.60;;;;;;;12.63;78.79;99717.22;4330824;33;20065;-79
2022/05/10 06:50:10;;;;;;;4.95;2.03;;;;;;;12.63;80.95;99699.13;4338666;33;20088;-82
2022/05/10 06:52:38;;;;;;;4.47;2.50;;;;;;;12.65;82.41;99690.78;4324689;33;20132;-78
2022/05/10 06:55:05;;;;;;;9.27;2.20;;;;;;;12.95;83.42;99728.25;4324368;33;20069;-77
2022/05/10 06:57:32;;;;;;;6.25;2.40;;;;;;;13.09;81.21;99728.72;4327237;33;20116;-78
2022/05/10 06:59:58;;;;;;;9.40;2.55;;;;;;;13.16;77.91;99729.38;4308490;33;20053;-81
2022/05/10 07:02:25;;;;;;;7.57;2.20;;;;;;;12.89;77.30;99686.81;4307314;33;20076;-81
2022/05/10 07:04:53;;;;;;;13.55;2.45;;;;;;;12.97;70.84;99693.69;4324591;33;20052;-79
2022/05/10 07:07:19;;;;;;;4.32;1.73;;;;;;;13.40;74.57;99735.38;4313086;33;20066;-78
2022/05/10 07:09:46;;;;;;;5.10;1.73;;;;;;;13.32;71.79;99722.25;4324374;33;20153;-78
2022/05/10 07:12:13;;;;;;;3.22;1.67;;;;;;;13.36;73.17;99704.50;4320923;33;20048;-78
2022/05/10 07:14:40;;;;;;;7.05;1.92;;;;;;;13.58;73.40;99736.16;4325074;33;20058;-78
2022/05/10 07:17:06;;;;;;;2.75;2.10;;;;;;;13.59;68.66;99735.06;4322287;33;20041;-77
2022/05/10 07:19:32;;;;;;;3.40;1.65;;;;;;;13.71;72.23;99734.94;4325766;33;20110;-77
2022/05/10 07:21:59;;;;;;;11.70;1.67;;;;;;;13.75;72.92;99726.06;4322331;33;20114;-77
2022/05/10 07:24:25;;;;;;;7.20;3.15;;;;;;;13.78;75.71;99725.53;4338165;33;20040;-86
2022/05/10 07:26:52;;;;;;;9.00;2.08;;;;;;;13.84;74.80;99728.31;4326161;33;20050;-78
2022/05/10 07:29:18;;;;;;;11.15;1.85;;;;;;;13.84;73.24;99731.84;4324344;33;20062;-79
2022/05/10 07:31:45;;;;;;;12.77;1.50;;;;;;;13.65;68.98;99695.38;4339041;33;20498;-79
2022/05/10 07:34:11;;;;;;;12.98;1.83;;;;;;;13.41;60.43;99661.28;4328818;33;20040;-78
2022/05/10 07:36:39;;;;;;;9.20;2.08;;;;;;;13.63;66.69;99679.38;4323032;33;20195;-78
2022/05/10 07:39:08;;;;;;;5.05;2.70;;;;;;;13.95;64.53;99720.03;4326363;33;20085;-78
2022/05/10 07:41:36;;;;;;;1.55;1.45;;;;;;;13.92;68.44;99698.09;4325746;33;20078;-78
2022/05/10 07:44:03;;;;;;;9.25;2.70;;;;;;;13.88;70.40;99680.72;4340086;33;20047;-82
2022/05/10 07:46:30;;;;;;;9.25;1.70;;;;;;;13.97;64.08;99711.66;4336620;32;20054;-85
2022/05/10 07:48:56;;;;;;;3.92;1.60;;;;;;;13.95;62.15;99687.56;4326370;33;20057;-78
2022/05/10 07:51:24;;;;;;;3.65;1.50;;;;;;;14.25;67.12;99701.63;4339484;33;20074;-73
2022/05/10 07:53:51;;;;;;;14.43;2.65;;;;;;;14.30;62.64;99709.81;4335391;33;21497;-72
2022/05/10 07:56:17;;;;;;;5.72;2.60;;;;;;;14.34;61.85;99717.19;4312245;33;20054;-79
2022/05/10 07:58:44;;;;;;;7.87;1.73;;;;;;;14.34;65.98;99710.91;4320183;33;20048;-75
2022/05/10 08:01:11;;;;;;;7.53;1.80;;;;;;;14.43;58.63;99714.00;4324989;33;20045;-72
2022/05/10 08:03:38;;;;;;;6.45;2.17;;;;;;;14.51;63.92;99719.72;4312553;33;20032;-73
2022/05/10 08:06:05;;;;;;;7.57;2.65;;;;;;;14.36;58.44;99681.69;4312599;33;20052;-73
2022/05/10 08:08:35;;;;;;;9.73;2.30;;;;;;;14.52;56.93;99705.13;4308098;33;20067;-78
2022/05/10 08:11:03;;;;;;;4.37;2.42;;;;;;;14.44;55.71;99670.38;4303658;33;20110;-72
2022/05/10 08:13:31;;;;;;;3.80;2.58;;;;;;;14.67;55.29;99703.63;4322876;33;20093;-75
2022/05/10 08:15:58;;;;;;;3.67;2.08;;;;;;;14.52;49.33;99664.47;4311718;33;20460;-73
2022/05/10 08:18:26;;;;;;;4.78;2.60;;;;;;;14.85;52.37;99700.50;4311715;33;20070;-76
2022/05/10 08:20:56;;;;;;;1.95;1.80;;;;;;;14.70;52.31;99708.53;4325127;33;20044;-73
2022/05/10 08:23:25;;;;;;;3.72;2.20;;;;;;;14.60;57.35;99681.34;4323482;33;20078;-72
2022/05/10 08:25:54;;;;;;;5.95;2.20;;;;;;;14.44;57.11;99656.84;4325191;33;20066;-73
2022/05/10 08:28:22;;;;;;;12.45;2.90;;;;;;;14.71;58.19;99686.59;4322828;33;20430;-75
2022/05/10 08:30:48;;;;;;;2.05;1.90;;;;;;;14.68;50.06;99656.50;4313270;33;20829;-71
2022/05/10 08:33:30;;;;;;;5.57;2.10;;;;;;;14.99;48.79;99689.19;4312830;33;20462;-72
2022/05/10 08:35:58;;;;;;;3.10;1.77;;;;;;;15.04;47.95;99686.50;4311450;33;20447;-77
2022/05/10 08:38:27;;;;;;;5.10;3.55;;;;;;;14.99;50.04;99684.56;4307869;33;20082;-73
2022/05/10 08:41:00;;;;;;;1.90;1.80;;;;;;;14.75;48.92;99651.63;4325356;33;20037;-76
2022/05/10 08:43:48;;;;;;;5.87;1.98;;;;;;;15.16;49.07;99683.59;4321320;33;20091;-77
2022/05/10 08:46:21;;;;;;;2.17;1.67;;;;;;;15.34;48.11;99691.25;4319368;33;20074;-76
2022/05/10 08:48:53;;;;;;;2.30;2.10;;;;;;;14.92;48.21;99623.53;4311608;33;20090;-77
2022/05/10 08:51:26;;;;;;;7.03;2.12;;;;;;;14.93;47.14;99636.00;4317147;33;20059;-78
2022/05/10 08:53:54;;;;;;;13.15;2.17;;;;;;;15.18;46.72;99670.59;4323183;33;20074;-77
2022/05/10 08:56:29;;;;;;;5.05;2.03;;;;;;;15.01;44.38;99627.37;4312777;33;20393;-77
2022/05/10 08:59:12;;;;;;;4.95;2.05;;;;;;;15.09;43.93;99645.84;4311915;33;20045;-77
2022/05/10 09:01:50;;;;;;;4.30;1.92;;;;;;;15.03;38.24;99633.34;4313240;33;20217;-77
2022/05/10 09:04:33;;;;;;;11.60;2.22;;;;;;;15.02;41.67;99639.84;4320851;33;20049;-79
2022/05/10 09:07:38;;;;;;;9.85;2.08;;;;;;;15.36;44.42;99672.00;4322621;33;20381;-78
2022/05/10 09:10:14;;;;;;;7.10;2.08;;;;;;;15.15;39.26;99644.78;4317274;33;20057;-77
2022/05/10 09:12:58;;;;;;;5.80;3.47;;;;;;;15.07;39.24;99639.88;4323029;33;20086;-77
2022/05/10 09:15:29;;;;;;;8.45;2.35;;;;;;;15.48;39.38;99669.88;4317979;33;20078;-77
2022/05/10 09:17:56;;;;;;;9.18;1.80;;;;;;;15.70;38.74;99660.69;4320509;33;20091;-79
2022/05/10 09:20:22;;;;;;;6.82;2.97;;;;;;;15.34;36.86;99619.91;4324106;33;20044;-78
2022/05/10 09:23:07;;;;;;;4.97;1.83;;;;;;;15.55;36.63;99648.72;4337214;33;20074;-79
2022/05/10 09:25:39;;;;;;;7.85;2.15;;;;;;;15.75;38.93;99652.59;4328706;33;20036;-79
2022/05/10 09:28:19;;;;;;;11.20;2.10;;;;;;;15.62;37.78;99649.28;4324839;33;20052;-74
2022/05/10 09:34:45;;;;;;;14.65;2.20;;;;;;;15.80;37.55;99656.13;4337963;33;20032;-74
2022/05/10 09:36:29;;;;;;;5.20;1.85;;;;;;;15.89;37.42;99659.16;4316829;33;20045;-72
2022/05/10 09:39:12;;;;;;;5.28;2.22;;;;;;;15.83;38.52;99619.50;4312852;33;20070;-72
2022/05/10 09:41:43;;;;;;;4.43;1.87;;;;;;;15.37;37.51;99622.91;4323862;33;20037;-72
2022/05/10 09:44:17;;;;;;;2.65;1.65;;;;;;;15.72;38.66;99658.56;4313164;33;20159;-71
2022/05/10 09:46:44;;;;;;;3.28;2.15;;;;;;;15.79;36.55;99642.84;4314434;33;20040;-74
2022/05/10 09:49:35;;;;;;;5.28;2.35;;;;;;;15.82;38.27;99609.72;4312014;33;20052;-72
2022/05/10 09:52:02;;;;;;;6.82;2.58;;;;;;;16.25;40.01;99651.00;4313475;33;20438;-72
2022/05/10 09:54:38;;;;;;;3.78;1.67;;;;;;;16.22;37.93;99640.69;4320520;33;20052;-72
2022/05/10 09:57:09;;;;;;;3.80;2.17;;;;;;;16.15;38.56;99640.16;4326052;33;20048;-73
2022/05/10 09:59:46;;;;;;;5.55;2.53;;;;;;;15.94;39.38;99593.97;4321656;33;20063;-73
2022/05/10 10:02:28;;;;;;;7.15;2.50;;;;;;;16.50;40.70;99630.34;4321371;33;20040;-72
2022/05/10 10:04:56;;;;;;;3.78;2.40;;;;;;;15.83;37.88;99535.31;4308755;33;20049;-72
2022/05/10 10:07:26;;;;;;;9.90;3.37;;;;;;;16.41;40.96;99592.03;4312527;33;20072;-73
2022/05/10 10:10:14;;;;;;;5.87;2.37;;;;;;;16.30;40.90;99610.25;4312931;33;20032;-72
2022/05/10 10:12:44;;;;;;;6.68;2.12;;;;;;;16.65;42.57;99605.84;4313000;33;20070;-73
2022/05/10 10:15:36;;;;;;;6.10;2.30;;;;;;;16.63;41.21;99580.84;4313295;33;20041;-72
2022/05/10 10:18:41;;;;;;;2.37;1.80;;;;;;;17.04;39.92;99607.09;4313147;33;20049;-73
2022/05/10 10:21:11;;;;;;;7.55;3.05;;;;;;;17.08;37.44;99610.91;4307543;33;20322;-73
2022/05/10 10:23:43;;;;;;;4.47;2.33;;;;;;;16.83;38.96;99579.13;4324461;33;20040;-73
2022/05/10 10:26:43;;;;;;;6.30;2.00;;;;;;;17.01;40.35;99603.03;4332699;33;20095;-73
2022/05/10 10:29:33;;;;;;;4.25;2.50;;;;;;;17.27;44.11;99559.37;4353328;32;20411;-73
2022/05/10 10:32:05;;;;;;;9.27;2.20;;;;;;;17.58;42.05;99561.91;4342231;33;20071;-76
2022/05/10 10:34:52;;;;;;;6.30;2.17;;;;;;;17.62;39.91;99562.97;4341308;33;20060;-73
2022/05/10 10:37:32;;;;;;;8.90;2.37;;;;;;;17.97;39.61;99585.62;4341498;33;20043;-73
2022/05/10 10:40:32;;;;;;;10.35;3.78;;;;;;;18.13;39.62;99584.38;4324699;33;20062;-74
2022/05/10 10:43:09;;;;;;;12.13;2.45;;;;;;;17.77;38.92;99568.31;4320817;33;20071;-74
2022/05/10 10:45:42;;;;;;;3.90;2.58;;;;;;;17.68;39.56;99534.63;4311116;33;20067;-74
2022/05/10 10:48:28;;;;;;;8.05;2.55;;;;;;;17.94;37.92;99564.38;4322223;33;20040;-74
2022/05/10 10:50:56;;;;;;;7.65;2.40;;;;;;;17.71;39.81;99530.50;4311704;33;20054;-76
2022/05/10 10:53:25;;;;;;;4.50;1.85;;;;;;;18.07;37.67;99558.28;4311644;33;20137;-74
2022/05/10 10:56:19;;;;;;;9.02;2.67;;;;;;;18.30;39.67;99523.16;4312509;33;20090;-73
2022/05/10 10:59:16;;;;;;;5.60;1.80;;;;;;;18.52;33.92;99553.47;4310248;33;20060;-76
2022/05/10 11:02:06;;;;;;;4.95;2.17;;;;;;;18.97;37.09;99549.69;4312752;33;20041;-72
2022/05/10 11:04:45;;;;;;;5.33;2.10;;;;;;;18.87;32.83;99551.47;4324786;33;20366;-72
2022/05/10 11:07:26;;;;;;;12.55;2.08;;;;;;;18.56;37.15;99536.53;4325740;33;20090;-73
2022/05/10 11:10:03;;;;;;;8.57;2.03;;;;;;;19.66;37.65;99511.03;4321626;33;20045;-73
2022/05/10 11:12:52;;;;;;;6.35;1.92;;;;;;;19.80;32.71;99541.13;4322991;33;20094;-73
2022/05/10 11:15:40;;;;;;;9.83;1.73;;;;;;;20.43;32.14;99532.34;4318750;33;20423;-75
2022/05/10 11:18:38;;;;;;;13.32;3.20;;;;;;;19.21;35.33;99497.78;4324023;33;20046;-72
2022/05/10 11:21:42;;;;;;;3.25;2.22;;;;;;;20.22;29.84;99515.53;4320563;33;20094;-73
2022/05/10 11:24:36;;;;;;;4.03;2.47;;;;;;;20.23;31.25;99511.69;4324393;33;20069;-74
2022/05/10 11:28:01;;;;;;;9.50;2.20;;;;;;;19.49;31.36;99515.09;4326755;33;20076;-73
2022/05/10 11:30:53;;;;;;;5.30;1.98;;;;;;;18.80;30.17;99509.25;4328756;33;20350;-73
2022/05/10 11:33:44;;;;;;;1.62;1.45;;;;;;;19.58;30.55;99496.94;4326081;33;20436;-74
2022/05/10 11:36:41;;;;;;;5.37;1.95;;;;;;;19.91;30.96;99491.50;4325151;33;20070;-84
2022/05/10 11:39:21;;;;;;;3.15;1.92;;;;;;;20.26;30.28;99478.28;4303480;33;20078;-75
2022/05/10 11:42:12;;;;;;;4.47;2.47;;;;;;;19.72;29.01;99460.63;4322936;33;20029;-85
2022/05/10 11:45:27;;;;;;;2.10;1.62;;;;;;;20.22;30.12;99490.91;4312115;33;20102;-73
2022/05/10 11:48:50;;;;;;;2.80;1.58;;;;;;;19.71;28.42;99489.09;4328064;33;20067;-72
2022/05/10 11:51:47;;;;;;;5.53;1.55;;;;;;;19.56;27.30;99477.31;4280845;33;20393;-73
2022/05/10 11:54:38;;;;;;;7.80;1.65;;;;;;;20.32;28.43;99474.31;4278880;33;20037;-72
2022/05/10 11:57:13;;;;;;;5.80;1.52;;;;;;;20.41;28.58;99440.81;4282401;33;20045;-72
2022/05/10 11:59:41;;;;;;;2.53;2.00;;;;;;;20.89;27.99;99462.22;4290845;33;20103;-73
2022/05/10 12:02:41;;;;;;;2.80;2.03;;;;;;;21.31;28.73;99446.47;4294930;33;20041;-72
2022/05/10 12:05:14;;;;;;;4.00;1.90;;;;;;;21.38;29.42;99460.53;4289195;33;20184;-81
2022/05/10 12:07:52;;;;;;;4.85;2.08;;;;;;;21.43;29.08;99459.63;4294692;33;20061;-79
2022/05/10 12:10:27;;;;;;;3.05;1.65;;;;;;;21.82;28.61;99432.62;4281262;33;20057;-75
2022/05/10 12:12:59;;;;;;;4.75;2.42;;;;;;;20.85;27.70;99431.94;4276773;33;20471;-74
2022/05/10 12:21:26;;;;;;;;;;;;;;;21.13;27.77;99395.44;4296353;33;20052;-75